»·PEaware :: ASA1804 KPDX-KSFO

ASA1804 :: KPDX-KSFO

FLIGHT INFORMATION

Flight Status: Arrived
Operator:
Alaska Airlines
More flights by this operator :: More flights under this callsign
Pilot: Jon F. (20038)
Aircraft: AIRBUS A320
(A320)
More flights by this aircraft type
Origin: KPDX Portland Intl
United States
Destination: KSFO San Francisco Intl
United States
More flights between these airports :: More routes between these airports
Route: MINNE5 FAMUK Q3 FOWND DCT MLBEC BDEGA2
File this flight plan on PilotEdge
Remarks:
Altitude:
(Current/Filed)
37,000ft
Speed:
(Current/Filed)
450kts
Departed: 03-Sep-18 11:45 AM
Arrived: 03-Sep-18 01:10 PM
Distance/Time
Traveled:
478nm/1:25
Distance/Time
To Go:
Arrived

Flight Plot

Page will automatically refresh every two minutes.

Flight plan parsing failed; only flown route is shown


Map Options




Map Legend


Flown Route
Filed Route
Departure Airport
Arrival Airport
Navaid (VOR, NDB)
Fix

Horizontal Profiles

Position Reports

Time Latitude Longitude Heading Altitude Ground
Speed
03-Sep-18 11:28 45.590402 -122.598972 209 38ft 0kts
03-Sep-18 11:29 45.590402 -122.598972 209 38ft 0kts
03-Sep-18 11:30 45.590402 -122.598972 209 38ft 0kts
03-Sep-18 11:31 45.590402 -122.598972 209 38ft 0kts
03-Sep-18 11:32 45.590402 -122.598972 209 38ft 0kts
03-Sep-18 11:33 45.590402 -122.598972 209 38ft 0kts
03-Sep-18 11:34 45.590402 -122.598972 209 38ft 0kts
03-Sep-18 11:35 45.590402 -122.598972 209 38ft 0kts
03-Sep-18 11:36 45.590831 -122.598639 209 38ft 2kts
03-Sep-18 11:37 45.590898 -122.598066 299 38ft 0kts
03-Sep-18 11:38 45.590898 -122.598067 298 38ft 0kts
03-Sep-18 11:39 45.590898 -122.598067 298 38ft 0kts
03-Sep-18 11:40 45.590916 -122.598115 298 38ft 2kts
03-Sep-18 11:41 45.590070 -122.601641 207 38ft 14kts
03-Sep-18 11:42 45.587974 -122.597652 118 38ft 14kts
03-Sep-18 11:43 45.585563 -122.592496 129 38ft 16kts
03-Sep-18 11:44 45.582772 -122.586497 119 38ft 19kts
03-Sep-18 11:45 45.581481 -122.583623 163 38ft 0kts
03-Sep-18 11:46 45.581271 -122.585828 299 38ft 23kts
03-Sep-18 11:47 45.600271 -122.631801 306 1616ft 174kts
03-Sep-18 11:48 45.625819 -122.691881 295 4565ft 197kts
03-Sep-18 11:48 45.651390 -122.756718 301 6451ft 256kts
03-Sep-18 11:50 45.661667 -122.873138 250 10131ft 285kts
03-Sep-18 11:51 45.588025 -122.927792 186 12099ft 353kts
03-Sep-18 11:51 45.505839 -122.936205 187 14419ft 362kts
03-Sep-18 11:52 45.411177 -122.972723 217 16865ft 363kts
03-Sep-18 11:54 45.314200 -123.070246 217 19415ft 375kts
03-Sep-18 11:54 45.242209 -123.141106 217 21025ft 384kts
03-Sep-18 11:55 45.146460 -123.206615 182 22637ft 409kts
03-Sep-18 11:56 45.031765 -123.194014 178 24210ft 422kts
03-Sep-18 11:58 44.895210 -123.178786 179 25889ft 432kts
03-Sep-18 11:58 44.799312 -123.168309 179 26942ft 439kts
03-Sep-18 11:59 44.676840 -123.154994 178 28151ft 448kts
03-Sep-18 12:00 44.551953 -123.141475 178 29268ft 456kts
03-Sep-18 12:01 44.425194 -123.133198 181 30289ft 462kts
03-Sep-18 12:02 44.296401 -123.128581 181 31227ft 468kts
03-Sep-18 12:03 44.167070 -123.123945 181 32397ft 466kts
03-Sep-18 12:04 44.038425 -123.119378 181 33504ft 463kts
03-Sep-18 12:05 43.910195 -123.114855 181 34529ft 460kts
03-Sep-18 12:06 43.786409 -123.110507 182 35433ft 458kts
03-Sep-18 12:07 43.658612 -123.106038 181 36275ft 456kts
03-Sep-18 12:08 43.532600 -123.101652 181 36996ft 456kts
03-Sep-18 12:09 43.406180 -123.097270 181 37123ft 455kts
03-Sep-18 12:10 43.280206 -123.092921 181 37125ft 455kts
03-Sep-18 12:11 43.153462 -123.088561 181 37122ft 456kts
03-Sep-18 12:12 43.029484 -123.084314 181 37123ft 456kts
03-Sep-18 12:13 42.903601 -123.080018 181 37150ft 456kts
03-Sep-18 12:14 42.781393 -123.075864 181 37144ft 456kts
03-Sep-18 12:15 42.655252 -123.071596 181 37134ft 456kts
03-Sep-18 12:16 42.528793 -123.067334 181 37125ft 457kts
03-Sep-18 12:17 42.402200 -123.063161 181 37085ft 457kts
03-Sep-18 12:18 42.275933 -123.059080 181 37087ft 458kts
03-Sep-18 12:19 42.149641 -123.055013 181 37074ft 459kts
03-Sep-18 12:20 42.022237 -123.050923 181 37083ft 459kts
03-Sep-18 12:21 41.896489 -123.046902 181 37099ft 460kts
03-Sep-18 12:22 41.771693 -123.042925 181 37094ft 459kts
03-Sep-18 12:23 41.649094 -123.039041 182 37069ft 460kts
03-Sep-18 12:24 41.522058 -123.035029 182 37084ft 462kts
03-Sep-18 12:25 41.394014 -123.031002 182 37121ft 463kts
03-Sep-18 12:26 41.265924 -123.027046 182 37119ft 463kts
03-Sep-18 12:27 41.137149 -123.023157 183 37007ft 464kts
03-Sep-18 12:28 41.008635 -123.019286 183 37015ft 465kts
03-Sep-18 12:29 40.882629 -123.015499 183 37024ft 466kts
03-Sep-18 12:30 40.754860 -123.011674 183 37022ft 465kts
03-Sep-18 12:31 40.625692 -123.007831 184 36999ft 467kts
03-Sep-18 12:32 40.496576 -123.003998 184 37014ft 468kts
03-Sep-18 12:33 40.366488 -123.000149 184 37025ft 468kts
03-Sep-18 12:34 40.237254 -122.996339 184 37027ft 468kts
03-Sep-18 12:35 40.106871 -122.992521 185 36941ft 470kts
03-Sep-18 12:36 39.977029 -122.988718 185 36917ft 469kts
03-Sep-18 12:37 39.849240 -122.984996 185 36916ft 469kts
03-Sep-18 12:38 39.724431 -122.981298 186 36944ft 452kts
03-Sep-18 12:39 39.599678 -122.977745 186 36948ft 451kts
03-Sep-18 12:40 39.474200 -122.974160 186 36947ft 453kts
03-Sep-18 12:41 39.348774 -122.970554 186 36946ft 453kts
03-Sep-18 12:42 39.223687 -122.966975 186 36946ft 453kts
03-Sep-18 12:43 39.096983 -122.963367 186 35140ft 456kts
03-Sep-18 12:44 38.972600 -122.960865 186 33226ft 452kts
03-Sep-18 12:45 38.847738 -122.951175 173 31287ft 474kts
03-Sep-18 12:46 38.727616 -122.915405 171 29300ft 476kts
03-Sep-18 12:47 38.600092 -122.877709 170 27122ft 473kts
03-Sep-18 12:48 38.472878 -122.840251 169 25096ft 459kts
03-Sep-18 12:49 38.358471 -122.806491 169 22895ft 400kts
03-Sep-18 12:50 38.255804 -122.776510 168 21057ft 375kts
03-Sep-18 12:51 38.156055 -122.747526 168 19257ft 368kts
03-Sep-18 12:52 38.057814 -122.719020 168 17480ft 360kts
03-Sep-18 12:53 37.962201 -122.691333 168 15731ft 349kts
03-Sep-18 12:54 37.875896 -122.648633 140 14041ft 339kts
03-Sep-18 12:55 37.805876 -122.574050 140 12463ft 323kts
03-Sep-18 12:56 37.739055 -122.503296 140 11080ft 306kts
03-Sep-18 12:57 37.676570 -122.436859 139 9764ft 292kts
03-Sep-18 12:58 37.616199 -122.372492 134 8461ft 281kts
03-Sep-18 12:59 37.560142 -122.312728 154 7072ft 277kts
03-Sep-18 13:00 37.491016 -122.273648 154 6007ft 275kts
03-Sep-18 13:01 37.434811 -122.215098 114 6012ft 272kts
03-Sep-18 13:02 37.402834 -122.129189 114 5999ft 270kts
03-Sep-18 13:03 37.390398 -122.041468 56 6002ft 270kts
03-Sep-18 13:04 37.456333 -122.036926 325 5395ft 275kts
03-Sep-18 13:05 37.503994 -122.109849 298 4103ft 273kts
03-Sep-18 13:07 37.540053 -122.189857 300 2594ft 236kts
03-Sep-18 13:08 37.565447 -122.249813 302 2003ft 158kts
03-Sep-18 13:09 37.584676 -122.294416 301 1226ft 140kts
03-Sep-18 13:10 37.602734 -122.337027 299 449ft 137kts
03-Sep-18 13:11 37.619119 -122.376002 299 21ft 68kts
03-Sep-18 13:12 37.619761 -122.379223 218 21ft 0kts
03-Sep-18 13:13 37.618215 -122.379944 177 21ft 7kts
03-Sep-18 13:14 37.617858 -122.380662 258 21ft 0kts

Navigation Log

Ident Type
Flight plan parsing failed, navigation log unavailable